sensor_id;sensor_type;location;lat;lon;timestamp;P1;durP1;ratioP1;P2;durP2;ratioP2
38693;SDS011;24447;43.460;25.744;2023-02-15T00:01:46;38.95;;;15.10;;
38693;SDS011;24447;43.460;25.744;2023-02-15T00:04:12;34.92;;;12.73;;
38693;SDS011;24447;43.460;25.744;2023-02-15T00:06:39;43.75;;;16.33;;
38693;SDS011;24447;43.460;25.744;2023-02-15T00:09:06;35.90;;;15.40;;
38693;SDS011;24447;43.460;25.744;2023-02-15T00:11:32;44.03;;;16.35;;
38693;SDS011;24447;43.460;25.744;2023-02-15T00:14:16;46.72;;;15.85;;
38693;SDS011;24447;43.460;25.744;2023-02-15T00:16:42;43.00;;;14.07;;
38693;SDS011;24447;43.460;25.744;2023-02-15T00:19:09;40.20;;;12.95;;
38693;SDS011;24447;43.460;25.744;2023-02-15T00:21:36;33.35;;;13.00;;
38693;SDS011;24447;43.460;25.744;2023-02-15T00:24:04;35.00;;;14.98;;
38693;SDS011;24447;43.460;25.744;2023-02-15T00:26:31;42.25;;;15.73;;
38693;SDS011;24447;43.460;25.744;2023-02-15T00:28:57;44.08;;;16.60;;
38693;SDS011;24447;43.460;25.744;2023-02-15T00:31:24;44.28;;;17.20;;
38693;SDS011;24447;43.460;25.744;2023-02-15T00:33:50;42.53;;;16.83;;
38693;SDS011;24447;43.460;25.744;2023-02-15T00:36:16;52.70;;;20.73;;
38693;SDS011;24447;43.460;25.744;2023-02-15T00:38:42;49.97;;;17.83;;
38693;SDS011;24447;43.460;25.744;2023-02-15T00:41:08;50.55;;;20.30;;
38693;SDS011;24447;43.460;25.744;2023-02-15T00:43:35;38.88;;;14.40;;
38693;SDS011;24447;43.460;25.744;2023-02-15T00:46:02;42.88;;;16.25;;
38693;SDS011;24447;43.460;25.744;2023-02-15T00:48:29;43.95;;;15.05;;
38693;SDS011;24447;43.460;25.744;2023-02-15T00:50:56;48.72;;;17.67;;
38693;SDS011;24447;43.460;25.744;2023-02-15T00:53:24;36.95;;;15.00;;
38693;SDS011;24447;43.460;25.744;2023-02-15T00:55:51;38.90;;;13.77;;
38693;SDS011;24447;43.460;25.744;2023-02-15T00:58:18;46.42;;;16.00;;
38693;SDS011;24447;43.460;25.744;2023-02-15T01:00:44;48.08;;;14.52;;
38693;SDS011;24447;43.460;25.744;2023-02-15T01:03:11;41.40;;;15.88;;
38693;SDS011;24447;43.460;25.744;2023-02-15T01:05:38;43.33;;;14.05;;
38693;SDS011;24447;43.460;25.744;2023-02-15T01:08:04;46.42;;;15.02;;
38693;SDS011;24447;43.460;25.744;2023-02-15T01:10:30;42.40;;;16.95;;
38693;SDS011;24447;43.460;25.744;2023-02-15T01:12:56;50.97;;;14.65;;
38693;SDS011;24447;43.460;25.744;2023-02-15T01:15:23;36.17;;;13.75;;
38693;SDS011;24447;43.460;25.744;2023-02-15T01:17:49;44.25;;;16.85;;
38693;SDS011;24447;43.460;25.744;2023-02-15T01:20:19;40.17;;;16.70;;
38693;SDS011;24447;43.460;25.744;2023-02-15T01:22:46;47.63;;;16.00;;
38693;SDS011;24447;43.460;25.744;2023-02-15T01:25:14;45.13;;;15.73;;
38693;SDS011;24447;43.460;25.744;2023-02-15T01:27:43;39.38;;;14.02;;
38693;SDS011;24447;43.460;25.744;2023-02-15T01:30:10;42.20;;;16.17;;
38693;SDS011;24447;43.460;25.744;2023-02-15T01:32:36;36.38;;;14.27;;
38693;SDS011;24447;43.460;25.744;2023-02-15T01:35:02;45.17;;;15.57;;
38693;SDS011;24447;43.460;25.744;2023-02-15T01:37:32;39.88;;;15.55;;
38693;SDS011;24447;43.460;25.744;2023-02-15T01:39:58;41.92;;;15.18;;
38693;SDS011;24447;43.460;25.744;2023-02-15T01:42:25;43.45;;;16.08;;
38693;SDS011;24447;43.460;25.744;2023-02-15T01:44:53;40.60;;;15.77;;
38693;SDS011;24447;43.460;25.744;2023-02-15T01:50:16;40.20;;;15.63;;
38693;SDS011;24447;43.460;25.744;2023-02-15T01:53:05;39.17;;;16.58;;
38693;SDS011;24447;43.460;25.744;2023-02-15T01:55:40;39.65;;;14.93;;
38693;SDS011;24447;43.460;25.744;2023-02-15T01:58:20;49.42;;;16.92;;
38693;SDS011;24447;43.460;25.744;2023-02-15T02:00:47;38.42;;;15.10;;
38693;SDS011;24447;43.460;25.744;2023-02-15T02:03:13;50.67;;;15.85;;
38693;SDS011;24447;43.460;25.744;2023-02-15T02:05:39;46.67;;;17.98;;
38693;SDS011;24447;43.460;25.744;2023-02-15T02:08:05;52.00;;;16.88;;
38693;SDS011;24447;43.460;25.744;2023-02-15T02:10:34;49.75;;;16.38;;
38693;SDS011;24447;43.460;25.744;2023-02-15T02:13:05;42.85;;;16.25;;
38693;SDS011;24447;43.460;25.744;2023-02-15T02:23:51;41.03;;;14.65;;
38693;SDS011;24447;43.460;25.744;2023-02-15T02:37:44;44.40;;;16.65;;
38693;SDS011;24447;43.460;25.744;2023-02-15T02:40:07;41.08;;;15.98;;
38693;SDS011;24447;43.460;25.744;2023-02-15T02:42:39;42.47;;;16.02;;
38693;SDS011;24447;43.460;25.744;2023-02-15T02:45:21;48.15;;;16.92;;
38693;SDS011;24447;43.460;25.744;2023-02-15T02:48:16;50.88;;;19.40;;
38693;SDS011;24447;43.460;25.744;2023-02-15T02:50:45;57.88;;;19.17;;
38693;SDS011;24447;43.460;25.744;2023-02-15T02:53:11;64.80;;;22.83;;
38693;SDS011;24447;43.460;25.744;2023-02-15T02:55:51;55.33;;;19.63;;
38693;SDS011;24447;43.460;25.744;2023-02-15T03:03:39;72.38;;;20.08;;
38693;SDS011;24447;43.460;25.744;2023-02-15T03:06:11;62.17;;;22.08;;
38693;SDS011;24447;43.460;25.744;2023-02-15T03:08:44;60.60;;;20.35;;
38693;SDS011;24447;43.460;25.744;2023-02-15T03:11:13;51.15;;;17.63;;
38693;SDS011;24447;43.460;25.744;2023-02-15T03:13:39;69.38;;;20.70;;
38693;SDS011;24447;43.460;25.744;2023-02-15T03:16:06;60.05;;;18.08;;
38693;SDS011;24447;43.460;25.744;2023-02-15T03:18:52;78.63;;;23.88;;
38693;SDS011;24447;43.460;25.744;2023-02-15T03:21:43;78.72;;;26.58;;
38693;SDS011;24447;43.460;25.744;2023-02-15T03:24:29;85.45;;;30.45;;
38693;SDS011;24447;43.460;25.744;2023-02-15T03:26:57;88.07;;;25.65;;
38693;SDS011;24447;43.460;25.744;2023-02-15T03:29:25;81.18;;;27.40;;
38693;SDS011;24447;43.460;25.744;2023-02-15T03:31:54;84.85;;;26.20;;
38693;SDS011;24447;43.460;25.744;2023-02-15T03:34:25;83.47;;;28.25;;
38693;SDS011;24447;43.460;25.744;2023-02-15T03:37:00;94.55;;;32.42;;
38693;SDS011;24447;43.460;25.744;2023-02-15T03:39:35;125.43;;;34.03;;
38693;SDS011;24447;43.460;25.744;2023-02-15T03:42:12;120.45;;;36.25;;
38693;SDS011;24447;43.460;25.744;2023-02-15T03:44:51;138.38;;;41.15;;
38693;SDS011;24447;43.460;25.744;2023-02-15T03:47:23;114.88;;;34.30;;
38693;SDS011;24447;43.460;25.744;2023-02-15T03:49:55;83.75;;;28.25;;
38693;SDS011;24447;43.460;25.744;2023-02-15T03:52:25;75.25;;;24.80;;
38693;SDS011;24447;43.460;25.744;2023-02-15T03:54:51;75.93;;;24.55;;
38693;SDS011;24447;43.460;25.744;2023-02-15T03:57:19;59.65;;;22.48;;
38693;SDS011;24447;43.460;25.744;2023-02-15T04:00:15;65.53;;;19.25;;
38693;SDS011;24447;43.460;25.744;2023-02-15T04:03:15;51.95;;;16.15;;
38693;SDS011;24447;43.460;25.744;2023-02-15T04:05:46;55.17;;;20.95;;
38693;SDS011;24447;43.460;25.744;2023-02-15T04:08:12;67.43;;;21.13;;
38693;SDS011;24447;43.460;25.744;2023-02-15T04:10:39;57.95;;;21.63;;
38693;SDS011;24447;43.460;25.744;2023-02-15T04:13:17;64.43;;;23.23;;
38693;SDS011;24447;43.460;25.744;2023-02-15T04:15:43;69.38;;;24.90;;
38693;SDS011;24447;43.460;25.744;2023-02-15T04:18:27;48.75;;;18.85;;
38693;SDS011;24447;43.460;25.744;2023-02-15T04:21:12;48.17;;;15.48;;
38693;SDS011;24447;43.460;25.744;2023-02-15T04:23:57;55.83;;;18.63;;
38693;SDS011;24447;43.460;25.744;2023-02-15T04:26:41;46.95;;;16.60;;
38693;SDS011;24447;43.460;25.744;2023-02-15T04:29:07;44.47;;;16.45;;
38693;SDS011;24447;43.460;25.744;2023-02-15T04:31:33;39.78;;;15.27;;
38693;SDS011;24447;43.460;25.744;2023-02-15T04:33:59;38.58;;;15.15;;
38693;SDS011;24447;43.460;25.744;2023-02-15T04:36:25;41.83;;;16.35;;
38693;SDS011;24447;43.460;25.744;2023-02-15T04:38:51;42.78;;;15.57;;
38693;SDS011;24447;43.460;25.744;2023-02-15T04:41:17;40.50;;;17.52;;
38693;SDS011;24447;43.460;25.744;2023-02-15T04:43:43;44.42;;;16.17;;
38693;SDS011;24447;43.460;25.744;2023-02-15T04:46:08;49.10;;;15.40;;
38693;SDS011;24447;43.460;25.744;2023-02-15T04:48:34;43.17;;;15.88;;
38693;SDS011;24447;43.460;25.744;2023-02-15T04:51:04;41.40;;;15.55;;
38693;SDS011;24447;43.460;25.744;2023-02-15T04:53:31;53.80;;;18.50;;
38693;SDS011;24447;43.460;25.744;2023-02-15T04:55:58;40.30;;;15.43;;
38693;SDS011;24447;43.460;25.744;2023-02-15T04:58:23;39.33;;;13.00;;
38693;SDS011;24447;43.460;25.744;2023-02-15T05:00:49;42.17;;;18.45;;
38693;SDS011;24447;43.460;25.744;2023-02-15T05:03:15;42.03;;;15.98;;
38693;SDS011;24447;43.460;25.744;2023-02-15T05:05:42;56.47;;;19.65;;
38693;SDS011;24447;43.460;25.744;2023-02-15T05:08:08;48.90;;;14.32;;
38693;SDS011;24447;43.460;25.744;2023-02-15T05:10:34;39.45;;;13.73;;
38693;SDS011;24447;43.460;25.744;2023-02-15T05:12:59;48.70;;;16.85;;
38693;SDS011;24447;43.460;25.744;2023-02-15T05:15:25;40.60;;;13.90;;
38693;SDS011;24447;43.460;25.744;2023-02-15T05:17:51;44.92;;;15.25;;
38693;SDS011;24447;43.460;25.744;2023-02-15T05:20:17;38.70;;;15.27;;
38693;SDS011;24447;43.460;25.744;2023-02-15T05:22:43;35.67;;;14.07;;
38693;SDS011;24447;43.460;25.744;2023-02-15T05:25:09;42.15;;;14.85;;
38693;SDS011;24447;43.460;25.744;2023-02-15T05:27:54;39.83;;;14.95;;
38693;SDS011;24447;43.460;25.744;2023-02-15T05:30:39;47.80;;;16.83;;
38693;SDS011;24447;43.460;25.744;2023-02-15T05:33:05;56.58;;;16.48;;
38693;SDS011;24447;43.460;25.744;2023-02-15T05:35:32;98.85;;;29.92;;
38693;SDS011;24447;43.460;25.744;2023-02-15T05:37:59;95.85;;;27.83;;
38693;SDS011;24447;43.460;25.744;2023-02-15T05:40:25;105.07;;;34.83;;
38693;SDS011;24447;43.460;25.744;2023-02-15T05:42:55;157.73;;;50.72;;
38693;SDS011;24447;43.460;25.744;2023-02-15T05:45:24;201.45;;;52.45;;
38693;SDS011;24447;43.460;25.744;2023-02-15T05:47:50;182.43;;;58.15;;
38693;SDS011;24447;43.460;25.744;2023-02-15T05:50:16;122.78;;;41.00;;
38693;SDS011;24447;43.460;25.744;2023-02-15T05:52:48;123.60;;;37.47;;
38693;SDS011;24447;43.460;25.744;2023-02-15T05:55:14;90.47;;;29.33;;
38693;SDS011;24447;43.460;25.744;2023-02-15T05:57:40;65.90;;;23.50;;
38693;SDS011;24447;43.460;25.744;2023-02-15T06:00:07;65.80;;;20.35;;
38693;SDS011;24447;43.460;25.744;2023-02-15T06:02:35;84.50;;;26.77;;
38693;SDS011;24447;43.460;25.744;2023-02-15T06:05:02;70.35;;;24.25;;
38693;SDS011;24447;43.460;25.744;2023-02-15T06:07:29;53.15;;;22.90;;
38693;SDS011;24447;43.460;25.744;2023-02-15T06:09:54;51.10;;;19.05;;
38693;SDS011;24447;43.460;25.744;2023-02-15T06:12:20;45.60;;;16.50;;
38693;SDS011;24447;43.460;25.744;2023-02-15T06:14:46;41.20;;;15.45;;
38693;SDS011;24447;43.460;25.744;2023-02-15T06:17:12;55.97;;;17.27;;
38693;SDS011;24447;43.460;25.744;2023-02-15T06:19:38;52.47;;;19.10;;
38693;SDS011;24447;43.460;25.744;2023-02-15T06:22:04;54.97;;;18.88;;
38693;SDS011;24447;43.460;25.744;2023-02-15T06:24:31;39.08;;;16.67;;
38693;SDS011;24447;43.460;25.744;2023-02-15T06:26:57;56.63;;;18.95;;
38693;SDS011;24447;43.460;25.744;2023-02-15T06:29:23;49.97;;;20.13;;
38693;SDS011;24447;43.460;25.744;2023-02-15T06:31:49;50.38;;;20.73;;
38693;SDS011;24447;43.460;25.744;2023-02-15T06:34:15;62.08;;;27.23;;
38693;SDS011;24447;43.460;25.744;2023-02-15T06:36:41;90.32;;;39.92;;
38693;SDS011;24447;43.460;25.744;2023-02-15T06:39:07;106.72;;;45.45;;
38693;SDS011;24447;43.460;25.744;2023-02-15T06:41:33;82.32;;;39.03;;
38693;SDS011;24447;43.460;25.744;2023-02-15T06:43:59;78.95;;;30.63;;
38693;SDS011;24447;43.460;25.744;2023-02-15T06:46:25;57.95;;;26.10;;
38693;SDS011;24447;43.460;25.744;2023-02-15T06:48:51;54.55;;;20.80;;
38693;SDS011;24447;43.460;25.744;2023-02-15T06:51:16;65.88;;;27.38;;
38693;SDS011;24447;43.460;25.744;2023-02-15T06:53:42;62.95;;;25.75;;
38693;SDS011;24447;43.460;25.744;2023-02-15T06:56:09;61.53;;;25.25;;
38693;SDS011;24447;43.460;25.744;2023-02-15T06:58:36;58.25;;;24.67;;
38693;SDS011;24447;43.460;25.744;2023-02-15T07:01:03;60.08;;;24.92;;
38693;SDS011;24447;43.460;25.744;2023-02-15T07:03:29;63.03;;;24.58;;
38693;SDS011;24447;43.460;25.744;2023-02-15T07:05:56;48.63;;;19.83;;
38693;SDS011;24447;43.460;25.744;2023-02-15T07:08:23;69.35;;;28.98;;
38693;SDS011;24447;43.460;25.744;2023-02-15T07:10:50;59.83;;;24.40;;
38693;SDS011;24447;43.460;25.744;2023-02-15T07:13:17;62.60;;;26.48;;
38693;SDS011;24447;43.460;25.744;2023-02-15T07:15:44;52.22;;;21.52;;
38693;SDS011;24447;43.460;25.744;2023-02-15T07:18:10;55.90;;;22.85;;
38693;SDS011;24447;43.460;25.744;2023-02-15T07:20:36;60.28;;;24.00;;
38693;SDS011;24447;43.460;25.744;2023-02-15T07:23:03;59.92;;;24.70;;
38693;SDS011;24447;43.460;25.744;2023-02-15T07:25:30;59.30;;;27.10;;
38693;SDS011;24447;43.460;25.744;2023-02-15T07:28:00;67.78;;;31.55;;
38693;SDS011;24447;43.460;25.744;2023-02-15T07:30:27;69.78;;;30.63;;
38693;SDS011;24447;43.460;25.744;2023-02-15T07:32:59;60.83;;;28.45;;
38693;SDS011;24447;43.460;25.744;2023-02-15T07:35:50;65.43;;;27.15;;
38693;SDS011;24447;43.460;25.744;2023-02-15T07:38:19;49.55;;;23.92;;
38693;SDS011;24447;43.460;25.744;2023-02-15T07:40:45;49.60;;;18.63;;
38693;SDS011;24447;43.460;25.744;2023-02-15T07:43:11;41.72;;;16.05;;
38693;SDS011;24447;43.460;25.744;2023-02-15T07:45:37;47.03;;;18.35;;
38693;SDS011;24447;43.460;25.744;2023-02-15T07:48:04;41.15;;;16.15;;
38693;SDS011;24447;43.460;25.744;2023-02-15T07:50:30;34.72;;;15.25;;
38693;SDS011;24447;43.460;25.744;2023-02-15T07:52:56;38.53;;;14.07;;
38693;SDS011;24447;43.460;25.744;2023-02-15T07:55:22;31.95;;;12.98;;
38693;SDS011;24447;43.460;25.744;2023-02-15T07:57:49;32.83;;;11.95;;
38693;SDS011;24447;43.460;25.744;2023-02-15T08:00:17;35.65;;;13.80;;
38693;SDS011;24447;43.460;25.744;2023-02-15T08:02:55;31.70;;;12.60;;
38693;SDS011;24447;43.460;25.744;2023-02-15T08:05:41;36.83;;;13.45;;
38693;SDS011;24447;43.460;25.744;2023-02-15T08:08:08;35.08;;;13.65;;
38693;SDS011;24447;43.460;25.744;2023-02-15T08:10:57;30.00;;;11.93;;
38693;SDS011;24447;43.460;25.744;2023-02-15T08:13:43;36.38;;;13.93;;
38693;SDS011;24447;43.460;25.744;2023-02-15T08:16:23;30.92;;;12.27;;
38693;SDS011;24447;43.460;25.744;2023-02-15T08:18:58;33.42;;;12.63;;
38693;SDS011;24447;43.460;25.744;2023-02-15T08:21:26;33.33;;;13.77;;
38693;SDS011;24447;43.460;25.744;2023-02-15T08:23:53;34.50;;;13.32;;
38693;SDS011;24447;43.460;25.744;2023-02-15T08:26:20;35.95;;;14.13;;
38693;SDS011;24447;43.460;25.744;2023-02-15T08:28:46;36.83;;;14.05;;
38693;SDS011;24447;43.460;25.744;2023-02-15T08:31:13;40.00;;;15.25;;
38693;SDS011;24447;43.460;25.744;2023-02-15T08:33:40;33.38;;;15.25;;
38693;SDS011;24447;43.460;25.744;2023-02-15T08:36:08;37.10;;;15.95;;
38693;SDS011;24447;43.460;25.744;2023-02-15T08:38:36;36.40;;;14.38;;
38693;SDS011;24447;43.460;25.744;2023-02-15T08:43:40;128.38;;;60.88;;
38693;SDS011;24447;43.460;25.744;2023-02-15T08:46:07;41.47;;;17.38;;
38693;SDS011;24447;43.460;25.744;2023-02-15T08:48:33;37.92;;;16.27;;
38693;SDS011;24447;43.460;25.744;2023-02-15T08:50:59;48.63;;;21.10;;
38693;SDS011;24447;43.460;25.744;2023-02-15T08:53:30;35.92;;;13.88;;
38693;SDS011;24447;43.460;25.744;2023-02-15T08:55:56;82.55;;;34.65;;
38693;SDS011;24447;43.460;25.744;2023-02-15T08:58:23;43.67;;;18.50;;
38693;SDS011;24447;43.460;25.744;2023-02-15T09:00:49;30.35;;;13.15;;
38693;SDS011;24447;43.460;25.744;2023-02-15T09:03:15;28.98;;;11.68;;
38693;SDS011;24447;43.460;25.744;2023-02-15T09:05:41;32.90;;;12.88;;
38693;SDS011;24447;43.460;25.744;2023-02-15T09:08:07;32.53;;;13.52;;
38693;SDS011;24447;43.460;25.744;2023-02-15T09:10:33;28.80;;;11.35;;
38693;SDS011;24447;43.460;25.744;2023-02-15T09:12:59;29.80;;;11.57;;
38693;SDS011;24447;43.460;25.744;2023-02-15T09:15:25;28.60;;;10.90;;
38693;SDS011;24447;43.460;25.744;2023-02-15T09:17:50;33.85;;;15.80;;
38693;SDS011;24447;43.460;25.744;2023-02-15T09:20:16;35.53;;;14.88;;
38693;SDS011;24447;43.460;25.744;2023-02-15T09:22:42;41.60;;;21.17;;
38693;SDS011;24447;43.460;25.744;2023-02-15T09:25:08;40.65;;;18.13;;
38693;SDS011;24447;43.460;25.744;2023-02-15T09:27:34;28.30;;;11.48;;
38693;SDS011;24447;43.460;25.744;2023-02-15T09:30:01;25.10;;;10.25;;
38693;SDS011;24447;43.460;25.744;2023-02-15T09:32:28;27.73;;;13.68;;
38693;SDS011;24447;43.460;25.744;2023-02-15T09:34:54;31.45;;;11.45;;
38693;SDS011;24447;43.460;25.744;2023-02-15T09:37:20;33.30;;;14.75;;
38693;SDS011;24447;43.460;25.744;2023-02-15T09:39:46;33.10;;;14.90;;
38693;SDS011;24447;43.460;25.744;2023-02-15T09:58:34;37.38;;;16.90;;
38693;SDS011;24447;43.460;25.744;2023-02-15T10:25:53;28.20;;;11.23;;
38693;SDS011;24447;43.460;25.744;2023-02-15T10:28:45;37.55;;;17.90;;
38693;SDS011;24447;43.460;25.744;2023-02-15T10:34:39;32.65;;;12.45;;
38693;SDS011;24447;43.460;25.744;2023-02-15T10:37:01;28.13;;;12.43;;
38693;SDS011;24447;43.460;25.744;2023-02-15T10:53:09;32.95;;;11.65;;
38693;SDS011;24447;43.460;25.744;2023-02-15T11:06:31;29.30;;;14.05;;
38693;SDS011;24447;43.460;25.744;2023-02-15T11:09:01;24.40;;;10.80;;
38693;SDS011;24447;43.460;25.744;2023-02-15T11:11:31;31.40;;;12.40;;
38693;SDS011;24447;43.460;25.744;2023-02-15T11:14:01;32.40;;;13.40;;
38693;SDS011;24447;43.460;25.744;2023-02-15T11:16:32;34.45;;;14.48;;
38693;SDS011;24447;43.460;25.744;2023-02-15T11:21:39;25.65;;;12.05;;
38693;SDS011;24447;43.460;25.744;2023-02-15T11:24:18;34.15;;;14.20;;
38693;SDS011;24447;43.460;25.744;2023-02-15T11:27:04;33.55;;;13.40;;
38693;SDS011;24447;43.460;25.744;2023-02-15T11:29:38;28.67;;;12.30;;
38693;SDS011;24447;43.460;25.744;2023-02-15T11:35:04;26.45;;;10.68;;
38693;SDS011;24447;43.460;25.744;2023-02-15T11:37:45;29.13;;;12.05;;
38693;SDS011;24447;43.460;25.744;2023-02-15T11:40:26;28.48;;;10.95;;
38693;SDS011;24447;43.460;25.744;2023-02-15T11:43:00;30.83;;;11.25;;
38693;SDS011;24447;43.460;25.744;2023-02-15T11:45:34;23.73;;;10.50;;
38693;SDS011;24447;43.460;25.744;2023-02-15T11:48:00;28.83;;;10.85;;
38693;SDS011;24447;43.460;25.744;2023-02-15T11:50:31;30.65;;;11.77;;
38693;SDS011;24447;43.460;25.744;2023-02-15T11:53:09;26.70;;;11.38;;
38693;SDS011;24447;43.460;25.744;2023-02-15T11:55:41;25.13;;;10.38;;
38693;SDS011;24447;43.460;25.744;2023-02-15T11:58:12;30.13;;;10.82;;
38693;SDS011;24447;43.460;25.744;2023-02-15T12:01:14;25.50;;;9.95;;
38693;SDS011;24447;43.460;25.744;2023-02-15T12:06:27;29.13;;;11.23;;
38693;SDS011;24447;43.460;25.744;2023-02-15T12:09:37;29.38;;;13.13;;
38693;SDS011;24447;43.460;25.744;2023-02-15T12:11:52;22.65;;;9.30;;
38693;SDS011;24447;43.460;25.744;2023-02-15T12:14:18;26.50;;;10.82;;
38693;SDS011;24447;43.460;25.744;2023-02-15T12:16:49;22.63;;;9.18;;
38693;SDS011;24447;43.460;25.744;2023-02-15T12:19:30;35.78;;;13.30;;
38693;SDS011;24447;43.460;25.744;2023-02-15T12:22:00;31.35;;;11.60;;
38693;SDS011;24447;43.460;25.744;2023-02-15T12:24:38;29.17;;;10.68;;
38693;SDS011;24447;43.460;25.744;2023-02-15T12:27:19;24.20;;;10.10;;
38693;SDS011;24447;43.460;25.744;2023-02-15T12:32:18;27.35;;;9.13;;
38693;SDS011;24447;43.460;25.744;2023-02-15T12:34:48;23.33;;;9.52;;
38693;SDS011;24447;43.460;25.744;2023-02-15T12:37:23;24.23;;;10.75;;
38693;SDS011;24447;43.460;25.744;2023-02-15T12:39:52;21.98;;;9.32;;
38693;SDS011;24447;43.460;25.744;2023-02-15T12:42:22;22.88;;;9.95;;
38693;SDS011;24447;43.460;25.744;2023-02-15T12:44:57;28.80;;;11.30;;
38693;SDS011;24447;43.460;25.744;2023-02-15T12:47:23;31.83;;;10.00;;
38693;SDS011;24447;43.460;25.744;2023-02-15T12:52:49;31.27;;;10.85;;
38693;SDS011;24447;43.460;25.744;2023-02-15T12:55:26;36.58;;;12.32;;
38693;SDS011;24447;43.460;25.744;2023-02-15T13:00:38;26.02;;;10.13;;
38693;SDS011;24447;43.460;25.744;2023-02-15T13:03:04;27.38;;;10.98;;
38693;SDS011;24447;43.460;25.744;2023-02-15T13:05:40;25.17;;;10.63;;
38693;SDS011;24447;43.460;25.744;2023-02-15T13:11:05;27.33;;;9.65;;
38693;SDS011;24447;43.460;25.744;2023-02-15T13:13:50;25.58;;;10.43;;
38693;SDS011;24447;43.460;25.744;2023-02-15T13:18:43;23.00;;;8.77;;
38693;SDS011;24447;43.460;25.744;2023-02-15T13:21:18;33.42;;;13.15;;
38693;SDS011;24447;43.460;25.744;2023-02-15T13:23:47;26.70;;;10.88;;
38693;SDS011;24447;43.460;25.744;2023-02-15T13:26:17;24.33;;;10.18;;
38693;SDS011;24447;43.460;25.744;2023-02-15T13:28:55;26.13;;;10.77;;
38693;SDS011;24447;43.460;25.744;2023-02-15T13:31:26;29.48;;;12.38;;
38693;SDS011;24447;43.460;25.744;2023-02-15T13:33:58;28.65;;;10.90;;
38693;SDS011;24447;43.460;25.744;2023-02-15T13:46:58;27.48;;;11.93;;
38693;SDS011;24447;43.460;25.744;2023-02-15T13:49:37;29.45;;;12.60;;
38693;SDS011;24447;43.460;25.744;2023-02-15T13:54:47;23.88;;;9.20;;
38693;SDS011;24447;43.460;25.744;2023-02-15T14:02:55;26.17;;;10.43;;
38693;SDS011;24447;43.460;25.744;2023-02-15T14:11:21;28.33;;;10.55;;
38693;SDS011;24447;43.460;25.744;2023-02-15T14:13:59;23.15;;;9.05;;
38693;SDS011;24447;43.460;25.744;2023-02-15T14:17:01;30.45;;;11.75;;
38693;SDS011;24447;43.460;25.744;2023-02-15T14:19:39;26.55;;;10.38;;
38693;SDS011;24447;43.460;25.744;2023-02-15T14:22:53;18.48;;;8.35;;
38693;SDS011;24447;43.460;25.744;2023-02-15T14:30:55;28.08;;;10.13;;
38693;SDS011;24447;43.460;25.744;2023-02-15T14:36:03;19.42;;;7.63;;
38693;SDS011;24447;43.460;25.744;2023-02-15T14:41:39;22.63;;;7.18;;
38693;SDS011;24447;43.460;25.744;2023-02-15T14:44:27;21.83;;;8.25;;
38693;SDS011;24447;43.460;25.744;2023-02-15T14:47:17;20.52;;;9.32;;
38693;SDS011;24447;43.460;25.744;2023-02-15T14:49:47;22.55;;;10.25;;
38693;SDS011;24447;43.460;25.744;2023-02-15T14:52:13;27.90;;;9.85;;
38693;SDS011;24447;43.460;25.744;2023-02-15T15:04:36;24.48;;;8.85;;
38693;SDS011;24447;43.460;25.744;2023-02-15T15:09:33;25.88;;;8.93;;
38693;SDS011;24447;43.460;25.744;2023-02-15T15:14:46;24.05;;;8.32;;
38693;SDS011;24447;43.460;25.744;2023-02-15T15:29:12;32.60;;;10.73;;
38693;SDS011;24447;43.460;25.744;2023-02-15T15:31:16;18.02;;;8.30;;
38693;SDS011;24447;43.460;25.744;2023-02-15T15:42:47;39.90;;;12.90;;
38693;SDS011;24447;43.460;25.744;2023-02-15T15:51:00;93.28;;;32.72;;
38693;SDS011;24447;43.460;25.744;2023-02-15T15:53:31;52.28;;;20.05;;
38693;SDS011;24447;43.460;25.744;2023-02-15T15:56:04;72.65;;;29.92;;
38693;SDS011;24447;43.460;25.744;2023-02-15T15:58:32;47.83;;;21.02;;
38693;SDS011;24447;43.460;25.744;2023-02-15T16:00:59;33.83;;;13.48;;
38693;SDS011;24447;43.460;25.744;2023-02-15T16:03:30;30.55;;;12.95;;
38693;SDS011;24447;43.460;25.744;2023-02-15T16:05:56;42.22;;;17.05;;
38693;SDS011;24447;43.460;25.744;2023-02-15T16:08:38;39.88;;;15.48;;
38693;SDS011;24447;43.460;25.744;2023-02-15T16:11:15;25.23;;;8.82;;
38693;SDS011;24447;43.460;25.744;2023-02-15T16:13:44;29.77;;;10.15;;
38693;SDS011;24447;43.460;25.744;2023-02-15T16:16:13;29.25;;;10.70;;
38693;SDS011;24447;43.460;25.744;2023-02-15T16:18:46;33.40;;;10.18;;
38693;SDS011;24447;43.460;25.744;2023-02-15T16:21:23;38.20;;;12.95;;
38693;SDS011;24447;43.460;25.744;2023-02-15T16:23:57;27.05;;;10.43;;
38693;SDS011;24447;43.460;25.744;2023-02-15T16:27:19;25.55;;;7.13;;
38693;SDS011;24447;43.460;25.744;2023-02-15T16:29:37;18.25;;;6.20;;
38693;SDS011;24447;43.460;25.744;2023-02-15T16:32:05;23.00;;;8.50;;
38693;SDS011;24447;43.460;25.744;2023-02-15T16:34:49;21.83;;;7.63;;
38693;SDS011;24447;43.460;25.744;2023-02-15T16:37:18;23.23;;;7.63;;
38693;SDS011;24447;43.460;25.744;2023-02-15T16:39:48;19.80;;;7.57;;
38693;SDS011;24447;43.460;25.744;2023-02-15T16:42:15;24.50;;;10.63;;
38693;SDS011;24447;43.460;25.744;2023-02-15T16:44:42;26.23;;;9.30;;
38693;SDS011;24447;43.460;25.744;2023-02-15T16:47:21;17.63;;;6.70;;
38693;SDS011;24447;43.460;25.744;2023-02-15T16:49:52;24.42;;;7.57;;
38693;SDS011;24447;43.460;25.744;2023-02-15T16:52:21;20.40;;;6.70;;
38693;SDS011;24447;43.460;25.744;2023-02-15T16:54:56;26.17;;;8.15;;
38693;SDS011;24447;43.460;25.744;2023-02-15T16:57:44;21.75;;;7.95;;
38693;SDS011;24447;43.460;25.744;2023-02-15T17:00:17;15.57;;;6.13;;
38693;SDS011;24447;43.460;25.744;2023-02-15T17:03:05;21.55;;;6.88;;
38693;SDS011;24447;43.460;25.744;2023-02-15T17:06:16;20.55;;;7.35;;
38693;SDS011;24447;43.460;25.744;2023-02-15T17:08:32;16.98;;;6.07;;
38693;SDS011;24447;43.460;25.744;2023-02-15T17:11:12;21.80;;;6.93;;
38693;SDS011;24447;43.460;25.744;2023-02-15T17:16:43;24.80;;;9.00;;
38693;SDS011;24447;43.460;25.744;2023-02-15T17:19:15;40.45;;;16.45;;
38693;SDS011;24447;43.460;25.744;2023-02-15T17:21:58;37.97;;;13.13;;
38693;SDS011;24447;43.460;25.744;2023-02-15T17:24:36;23.45;;;10.48;;
38693;SDS011;24447;43.460;25.744;2023-02-15T17:27:05;19.98;;;8.77;;
38693;SDS011;24447;43.460;25.744;2023-02-15T17:29:50;23.33;;;8.02;;
38693;SDS011;24447;43.460;25.744;2023-02-15T17:32:27;21.25;;;7.50;;
38693;SDS011;24447;43.460;25.744;2023-02-15T17:38:36;20.55;;;7.45;;
38693;SDS011;24447;43.460;25.744;2023-02-15T17:40:45;23.08;;;7.80;;
38693;SDS011;24447;43.460;25.744;2023-02-15T17:43:12;26.20;;;8.20;;
38693;SDS011;24447;43.460;25.744;2023-02-15T17:45:46;22.02;;;7.07;;
38693;SDS011;24447;43.460;25.744;2023-02-15T17:48:35;22.38;;;8.60;;
38693;SDS011;24447;43.460;25.744;2023-02-15T17:51:01;21.35;;;8.02;;
38693;SDS011;24447;43.460;25.744;2023-02-15T17:53:28;29.30;;;9.98;;
38693;SDS011;24447;43.460;25.744;2023-02-15T17:55:54;32.35;;;12.45;;
38693;SDS011;24447;43.460;25.744;2023-02-15T17:58:20;31.42;;;11.93;;